createdAt,value
2022-10-19T00:01:09.181Z,100818.16
2022-10-19T00:03:36.430Z,100821.69
2022-10-19T00:06:10.288Z,100815.34
2022-10-19T00:08:36.672Z,100808.00
2022-10-19T00:11:03.053Z,100799.09
2022-10-19T00:13:30.773Z,100797.13
2022-10-19T00:15:57.119Z,100797.53
2022-10-19T00:18:23.431Z,100808.16
2022-10-19T00:20:49.915Z,100810.63
2022-10-19T00:23:16.246Z,100804.72
2022-10-19T00:25:42.572Z,100797.06
2022-10-19T00:28:08.930Z,100803.53
2022-10-19T00:30:37.675Z,100800.59
2022-10-19T00:33:04.123Z,100801.97
2022-10-19T00:35:30.500Z,100803.28
2022-10-19T00:37:56.926Z,100794.28
2022-10-19T00:40:23.363Z,100794.88
2022-10-19T00:42:54.139Z,100789.25
2022-10-19T00:45:20.621Z,100784.72
2022-10-19T00:47:48.308Z,100784.59
2022-10-19T00:50:15.373Z,100784.47
2022-10-19T00:52:42.161Z,100786.19
2022-10-19T00:55:09.025Z,100779.72
2022-10-19T00:57:35.662Z,100763.69
2022-10-19T01:00:04.297Z,100760.91
2022-10-19T01:02:31.047Z,100754.69
2022-10-19T01:04:59.137Z,100748.19
2022-10-19T01:07:25.800Z,100730.16
2022-10-19T01:09:52.781Z,100722.03
2022-10-19T01:12:27.313Z,100718.97
2022-10-19T01:14:59.028Z,100720.19
2022-10-19T01:17:33.068Z,100718.59
2022-10-19T01:20:17.491Z,100719.84
2022-10-19T01:22:51.966Z,100714.94
2022-10-19T01:25:22.036Z,100719.81
2022-10-19T01:28:02.996Z,100717.50
2022-10-19T01:30:37.671Z,100702.13
2022-10-19T01:33:09.795Z,100712.72
2022-10-19T01:38:24.844Z,100713.47
2022-10-19T01:45:48.546Z,100722.81
2022-10-19T01:53:39.260Z,100702.91
2022-10-19T01:56:06.824Z,100699.25
2022-10-19T02:01:34.667Z,100698.31
2022-10-19T02:04:02.885Z,100688.97
2022-10-19T02:11:57.043Z,100672.13
2022-10-19T02:14:25.503Z,100658.19
2022-10-19T02:16:57.363Z,100665.88
2022-10-19T02:21:56.373Z,100653.91
2022-10-19T02:24:22.883Z,100654.63
2022-10-19T02:26:49.644Z,100651.81
2022-10-19T02:29:30.844Z,100631.16
2022-10-19T02:32:12.051Z,100623.84
2022-10-19T02:37:05.729Z,100629.06
2022-10-19T02:39:32.414Z,100634.34
2022-10-19T02:42:01.846Z,100626.28
2022-10-19T02:44:30.798Z,100628.22
2022-10-19T02:47:00.824Z,100637.09
2022-10-19T02:49:27.420Z,100622.69
2022-10-19T02:56:48.143Z,100626.75
2022-10-19T02:59:14.516Z,100610.97
2022-10-19T03:01:40.901Z,100604.28
2022-10-19T03:04:07.300Z,100608.50
2022-10-19T03:06:33.775Z,100598.34
2022-10-19T03:09:00.161Z,100596.53
2022-10-19T03:11:26.537Z,100585.66
2022-10-19T03:13:54.282Z,100586.50
2022-10-19T03:16:20.799Z,100575.63
2022-10-19T03:18:47.577Z,100572.09
2022-10-19T03:21:14.208Z,100571.13
2022-10-19T03:23:41.515Z,100569.16
2022-10-19T03:26:11.431Z,100568.16
2022-10-19T03:28:38.991Z,100568.16
2022-10-19T03:31:06.964Z,100560.91
2022-10-19T03:33:33.328Z,100558.97
2022-10-19T03:36:14.529Z,100560.47
2022-10-19T03:38:40.895Z,100560.88
2022-10-19T03:41:07.478Z,100548.16
2022-10-19T03:43:34.122Z,100537.91
2022-10-19T03:46:00.608Z,100539.06
2022-10-19T03:48:28.315Z,100536.00
2022-10-19T03:50:58.076Z,100535.06
2022-10-19T03:53:24.427Z,100533.91
2022-10-19T03:55:50.787Z,100527.28
2022-10-19T03:58:17.127Z,100525.91
2022-10-19T04:00:43.453Z,100521.28
2022-10-19T04:03:09.847Z,100517.19
2022-10-19T04:05:37.538Z,100516.94
2022-10-19T04:08:04.026Z,100520.47
2022-10-19T04:10:30.887Z,100527.41
2022-10-19T04:12:57.318Z,100527.81
2022-10-19T04:15:23.656Z,100516.03
2022-10-19T04:17:50.097Z,100511.31
2022-10-19T04:20:16.595Z,100516.97
2022-10-19T04:22:44.271Z,100519.91
2022-10-19T04:25:10.602Z,100514.69
2022-10-19T04:27:37.136Z,100514.06
2022-10-19T04:30:04.122Z,100518.44
2022-10-19T04:32:30.455Z,100516.13
2022-10-19T04:34:56.876Z,100521.06
2022-10-19T04:37:23.188Z,100513.59
2022-10-19T04:39:50.827Z,100511.66
2022-10-19T04:42:17.198Z,100515.66
2022-10-19T04:44:43.540Z,100508.28
2022-10-19T04:47:09.922Z,100505.59
2022-10-19T04:49:36.356Z,100498.28
2022-10-19T04:52:02.787Z,100492.91
2022-10-19T04:54:29.155Z,100489.06
2022-10-19T04:56:56.812Z,100475.63
2022-10-19T04:59:23.206Z,100470.16
2022-10-19T05:01:49.547Z,100467.31
2022-10-19T05:04:15.946Z,100462.66
2022-10-19T05:06:42.453Z,100475.94
2022-10-19T05:09:08.744Z,100463.34
2022-10-19T05:11:35.102Z,100461.47
2022-10-19T05:14:02.730Z,100460.88
2022-10-19T05:16:29.136Z,100463.72
2022-10-19T05:18:55.857Z,100469.34
2022-10-19T05:21:22.456Z,100457.88
2022-10-19T05:23:51.353Z,100454.22
2022-10-19T05:26:18.422Z,100453.69
2022-10-19T05:28:47.436Z,100446.09
2022-10-19T05:31:15.889Z,100448.34
2022-10-19T05:33:42.599Z,100463.34
2022-10-19T05:36:11.018Z,100468.56
2022-10-19T05:38:37.539Z,100460.25
2022-10-19T05:41:03.945Z,100456.72
2022-10-19T05:43:30.310Z,100449.25
2022-10-19T05:45:56.700Z,100439.34
2022-10-19T05:48:24.492Z,100429.16
2022-10-19T05:50:52.556Z,100426.47
2022-10-19T05:53:19.004Z,100420.97
2022-10-19T05:55:45.443Z,100419.84
2022-10-19T05:58:11.864Z,100418.28
2022-10-19T06:00:38.224Z,100415.59
2022-10-19T06:03:04.634Z,100404.53
2022-10-19T06:05:32.355Z,100404.81
2022-10-19T06:07:58.697Z,100395.31
2022-10-19T06:10:25.289Z,100399.97
2022-10-19T06:12:51.699Z,100401.97
2022-10-19T06:15:18.053Z,100394.59
2022-10-19T06:17:44.480Z,100393.06
2022-10-19T06:20:11.505Z,100391.81
2022-10-19T06:22:39.127Z,100372.59
2022-10-19T06:25:05.892Z,100377.13
2022-10-19T06:27:32.618Z,100370.50
2022-10-19T06:29:59.255Z,100366.53
2022-10-19T06:32:25.628Z,100355.78
2022-10-19T06:34:56.367Z,100360.91
2022-10-19T06:37:23.269Z,100366.13
2022-10-19T06:39:50.991Z,100354.25
2022-10-19T06:42:18.222Z,100354.09
2022-10-19T06:44:44.824Z,100359.66
2022-10-19T06:47:11.260Z,100351.28
2022-10-19T06:49:37.654Z,100352.38
2022-10-19T06:52:04.159Z,100369.06
2022-10-19T06:54:30.557Z,100364.09
2022-10-19T06:56:58.337Z,100369.75
2022-10-19T06:59:24.755Z,100364.66
2022-10-19T07:01:51.175Z,100354.19
2022-10-19T07:04:17.552Z,100360.69
2022-10-19T07:06:43.975Z,100347.69
2022-10-19T07:09:10.403Z,100331.88
2022-10-19T07:11:36.821Z,100342.91
2022-10-19T07:14:04.625Z,100332.31
2022-10-19T07:16:30.951Z,100338.97
2022-10-19T07:18:57.273Z,100336.16
2022-10-19T07:21:23.718Z,100353.44
2022-10-19T07:23:50.058Z,100350.44
2022-10-19T07:26:17.667Z,100356.25
2022-10-19T07:28:45.288Z,100354.13
2022-10-19T07:31:14.093Z,100344.91
2022-10-19T07:33:40.855Z,100337.84
2022-10-19T07:36:08.724Z,100333.34
2022-10-19T07:38:35.461Z,100336.88
2022-10-19T07:41:03.445Z,100341.25
2022-10-19T07:43:29.875Z,100325.00
2022-10-19T07:45:58.360Z,100328.81
2022-10-19T07:48:26.046Z,100337.00
2022-10-19T07:50:52.418Z,100325.41
2022-10-19T07:53:18.810Z,100331.78
2022-10-19T07:55:45.184Z,100336.72
2022-10-19T07:58:11.572Z,100343.53
2022-10-19T08:03:43.669Z,100341.25
2022-10-19T08:06:00.665Z,100336.53
2022-10-19T08:08:27.455Z,100336.13
2022-10-19T08:10:53.940Z,100335.28
2022-10-19T08:13:20.294Z,100334.16
2022-10-19T08:15:46.702Z,100341.63
2022-10-19T08:18:13.187Z,100333.03
2022-10-19T08:20:40.354Z,100337.00
2022-10-19T08:23:08.015Z,100336.16
2022-10-19T08:25:34.574Z,100344.34
2022-10-19T08:28:00.919Z,100339.25
2022-10-19T08:30:27.292Z,100345.75
2022-10-19T08:32:53.751Z,100341.38
2022-10-19T08:35:20.233Z,100336.72
2022-10-19T08:37:46.852Z,100326.81
2022-10-19T08:40:18.627Z,100325.69
2022-10-19T08:42:50.492Z,100323.00
2022-10-19T08:45:25.163Z,100328.38
2022-10-19T08:48:00.438Z,100334.75
2022-10-19T08:50:29.288Z,100333.16
2022-10-19T08:53:00.714Z,100319.16
2022-10-19T08:55:33.829Z,100326.25
2022-10-19T08:58:03.446Z,100313.09
2022-10-19T09:00:35.294Z,100323.41
2022-10-19T09:03:09.757Z,100316.31
2022-10-19T09:05:40.685Z,100319.00
2022-10-19T09:08:08.812Z,100323.13
2022-10-19T09:10:38.932Z,100326.78
2022-10-19T09:13:07.568Z,100316.06
2022-10-19T09:15:38.361Z,100316.06
2022-10-19T09:18:05.863Z,100308.72
2022-10-19T09:20:36.851Z,100306.16
2022-10-19T09:23:06.816Z,100301.63
2022-10-19T09:25:38.210Z,100289.06
2022-10-19T09:28:12.635Z,100278.75
2022-10-19T09:30:40.365Z,100269.13
2022-10-19T09:33:15.336Z,100263.75
2022-10-19T09:35:44.201Z,100257.53
2022-10-19T09:38:14.003Z,100259.38
2022-10-19T09:40:41.820Z,100250.75
2022-10-19T09:43:08.348Z,100246.22
2022-10-19T09:45:38.604Z,100250.34
2022-10-19T09:48:13.946Z,100239.72
2022-10-19T09:50:43.006Z,100240.00
2022-10-19T09:53:15.367Z,100236.63
2022-10-19T09:55:43.932Z,100235.78
2022-10-19T09:58:16.271Z,100236.88
2022-10-19T10:00:43.679Z,100227.84
2022-10-19T10:03:22.623Z,100233.94
2022-10-19T10:05:49.375Z,100224.16
2022-10-19T10:08:17.738Z,100221.63
2022-10-19T10:10:47.127Z,100219.63
2022-10-19T10:13:16.637Z,100223.31
2022-10-19T10:15:44.090Z,100231.22
2022-10-19T10:18:12.865Z,100230.94
2022-10-19T10:20:55.289Z,100227.81
2022-10-19T10:23:24.214Z,100222.16
2022-10-19T10:25:54.785Z,100219.31
2022-10-19T10:28:22.050Z,100205.88
2022-10-19T10:30:49.335Z,100197.53
2022-10-19T10:33:27.332Z,100203.63
2022-10-19T10:36:05.206Z,100199.53
2022-10-19T10:38:32.978Z,100191.31
2022-10-19T10:41:02.773Z,100181.75
2022-10-19T10:43:30.682Z,100177.94
2022-10-19T10:46:00.402Z,100178.06
2022-10-19T10:48:28.415Z,100179.91
2022-10-19T10:50:55.236Z,100183.59
2022-10-19T10:53:32.757Z,100189.09
2022-10-19T10:55:59.155Z,100167.03
2022-10-19T10:58:31.271Z,100176.66
2022-10-19T11:01:01.913Z,100161.38
2022-10-19T11:03:30.781Z,100158.84
2022-10-19T11:05:57.912Z,100153.47
2022-10-19T11:08:26.502Z,100142.75
2022-10-19T11:10:56.503Z,100142.88
2022-10-19T11:13:26.324Z,100151.09
2022-10-19T11:15:55.468Z,100133.69
2022-10-19T11:18:24.845Z,100129.97
2022-10-19T11:20:55.334Z,100125.03
2022-10-19T11:23:28.532Z,100119.50
2022-10-19T11:26:03.031Z,100122.19
2022-10-19T11:28:37.524Z,100105.91
2022-10-19T11:31:09.393Z,100100.41
2022-10-19T11:36:19.326Z,100079.31
2022-10-19T11:38:51.217Z,100080.31
2022-10-19T11:41:25.138Z,100074.78
2022-10-19T11:44:01.491Z,100092.31
2022-10-19T11:46:34.791Z,100075.75
2022-10-19T11:49:07.271Z,100076.19
2022-10-19T11:51:37.846Z,100067.16
2022-10-19T11:54:17.814Z,100063.78
2022-10-19T11:57:02.559Z,100050.19
2022-10-19T11:59:37.120Z,100045.81
2022-10-19T12:02:19.023Z,100041.41
2022-10-19T12:04:50.659Z,100026.31
2022-10-19T12:07:26.062Z,100018.53
2022-10-19T12:09:58.128Z,100026.59
2022-10-19T12:12:27.006Z,100024.19
2022-10-19T12:14:56.915Z,100030.56
2022-10-19T12:17:27.207Z,100027.22
2022-10-19T12:19:55.136Z,100019.44
2022-10-19T12:22:23.954Z,100018.59
2022-10-19T12:24:51.362Z,100015.16
2022-10-19T12:27:19.822Z,100003.81
2022-10-19T12:29:47.774Z,100001.84
2022-10-19T12:32:15.672Z,99993.06
2022-10-19T12:34:46.974Z,99992.94
2022-10-19T12:37:18.157Z,99993.38
2022-10-19T12:39:50.866Z,99985.31
2022-10-19T12:42:20.084Z,99985.44
2022-10-19T12:44:58.752Z,99984.63
2022-10-19T12:47:25.762Z,99971.00
2022-10-19T12:49:53.685Z,99971.44
2022-10-19T12:52:35.163Z,99964.22
2022-10-19T12:55:10.612Z,99955.59
2022-10-19T12:57:38.948Z,99946.28
2022-10-19T13:00:07.009Z,99943.94
2022-10-19T13:02:35.285Z,99943.06
2022-10-19T13:05:04.294Z,99940.69
2022-10-19T13:07:33.509Z,99942.38
2022-10-19T13:10:01.474Z,99933.47
2022-10-19T13:12:29.932Z,99936.28
2022-10-19T13:14:57.555Z,99918.78
2022-10-19T13:17:38.767Z,99913.72
2022-10-19T13:20:16.069Z,99923.63
2022-10-19T13:22:44.681Z,99911.75
2022-10-19T13:25:21.262Z,99909.44
2022-10-19T13:27:48.382Z,99908.13
2022-10-19T13:30:26.179Z,99902.94
2022-10-19T13:32:52.575Z,99901.91
2022-10-19T13:35:30.156Z,99899.94
2022-10-19T13:38:11.385Z,99890.59
2022-10-19T13:40:41.549Z,99884.91
2022-10-19T13:43:18.187Z,99882.22
2022-10-19T13:45:53.359Z,99868.78
2022-10-19T13:48:24.220Z,99865.09
2022-10-19T13:50:55.727Z,99852.50
2022-10-19T13:53:30.364Z,99852.97
2022-10-19T13:56:16.912Z,99852.44
2022-10-19T13:58:56.127Z,99845.81
2022-10-19T14:01:28.362Z,99855.56
2022-10-19T14:04:03.517Z,99845.50
2022-10-19T14:06:33.357Z,99847.53
2022-10-19T14:09:11.505Z,99850.34
2022-10-19T14:11:40.671Z,99841.44
2022-10-19T14:14:12.360Z,99837.91
2022-10-19T14:16:45.941Z,99838.38
2022-10-19T14:19:15.237Z,99837.66
2022-10-19T14:21:41.646Z,99832.59
2022-10-19T14:24:21.457Z,99822.69
2022-10-19T14:26:50.482Z,99823.94
2022-10-19T14:29:17.779Z,99831.78
2022-10-19T14:31:44.143Z,99827.66
2022-10-19T14:34:10.694Z,99836.09
2022-10-19T14:36:38.060Z,99836.78
2022-10-19T14:39:07.304Z,99833.78
2022-10-19T14:44:15.947Z,99822.59
2022-10-19T14:46:47.201Z,99834.03
2022-10-19T14:49:13.799Z,99828.31
2022-10-19T14:51:50.005Z,99834.41
2022-10-19T14:54:20.310Z,99835.94
2022-10-19T14:56:48.910Z,99828.19
2022-10-19T14:59:26.455Z,99832.31
2022-10-19T15:01:55.273Z,99832.38
2022-10-19T15:04:23.827Z,99841.91
2022-10-19T15:06:50.311Z,99828.78
2022-10-19T15:09:30.429Z,99831.66
2022-10-19T15:12:08.864Z,99835.47
2022-10-19T15:14:37.315Z,99832.06
2022-10-19T15:17:20.959Z,99837.75
2022-10-19T15:19:47.505Z,99832.38
2022-10-19T15:22:16.609Z,99822.94
2022-10-19T15:24:54.725Z,99808.97
2022-10-19T15:27:22.168Z,99813.66
2022-10-19T15:29:54.199Z,99815.19
2022-10-19T15:32:23.449Z,99811.44
2022-10-19T15:34:49.927Z,99828.78
2022-10-19T15:37:18.183Z,99820.44
2022-10-19T15:39:45.735Z,99820.97
2022-10-19T15:42:26.154Z,99832.94
2022-10-19T15:44:52.715Z,99829.94
2022-10-19T15:47:20.756Z,99836.84
2022-10-19T15:49:54.197Z,99848.97
2022-10-19T15:52:21.438Z,99834.56
2022-10-19T15:54:48.263Z,99829.72
2022-10-19T15:57:23.057Z,99828.72
2022-10-19T15:59:49.390Z,99818.66
2022-10-19T16:02:15.763Z,99815.75
2022-10-19T16:04:42.198Z,99808.59
2022-10-19T16:07:14.666Z,99815.59
2022-10-19T16:09:41.029Z,99815.91
2022-10-19T16:12:09.079Z,99808.97
2022-10-19T16:14:36.673Z,99803.78
2022-10-19T16:17:03.844Z,99805.09
2022-10-19T16:19:30.213Z,99809.63
2022-10-19T16:21:56.585Z,99807.22
2022-10-19T16:24:24.350Z,99806.53
2022-10-19T16:26:50.796Z,99805.97
2022-10-19T16:29:17.173Z,99814.22
2022-10-19T16:31:43.486Z,99821.84
2022-10-19T16:34:09.935Z,99828.91
2022-10-19T16:36:36.412Z,99837.66
2022-10-19T16:39:02.921Z,99840.31
2022-10-19T16:41:31.053Z,99840.69
2022-10-19T16:43:58.067Z,99841.09
2022-10-19T16:46:25.308Z,99843.59
2022-10-19T16:48:52.629Z,99847.84
2022-10-19T16:51:21.623Z,99842.16
2022-10-19T16:53:50.363Z,99834.78
2022-10-19T16:56:16.720Z,99834.63
2022-10-19T16:58:44.485Z,99834.34
2022-10-19T17:01:12.010Z,99835.00
2022-10-19T17:03:38.390Z,99837.41
2022-10-19T17:06:05.363Z,99830.34
2022-10-19T17:08:37.030Z,99839.41
2022-10-19T17:11:12.296Z,99836.78
2022-10-19T17:13:38.756Z,99834.16
2022-10-19T17:16:07.364Z,99821.19
2022-10-19T17:18:33.778Z,99820.50
2022-10-19T17:21:02.680Z,99827.00
2022-10-19T17:23:29.515Z,99826.31
2022-10-19T17:25:55.922Z,99830.31
2022-10-19T17:28:24.193Z,99833.97
2022-10-19T17:30:53.362Z,99840.66
2022-10-19T17:33:21.346Z,99842.50
2022-10-19T17:35:47.898Z,99856.84
2022-10-19T17:38:14.326Z,99834.75
2022-10-19T17:40:40.650Z,99836.16
2022-10-19T17:43:06.986Z,99836.69
2022-10-19T17:45:33.357Z,99840.91
2022-10-19T17:47:59.701Z,99834.41
2022-10-19T17:50:27.403Z,99828.72
2022-10-19T17:52:53.936Z,99825.03
2022-10-19T17:57:51.628Z,99852.13
2022-10-19T18:00:17.948Z,99854.81
2022-10-19T18:02:44.898Z,99851.13
2022-10-19T18:05:11.313Z,99846.22
2022-10-19T18:07:38.982Z,99849.97
2022-10-19T18:10:05.633Z,99857.97
2022-10-19T18:12:31.964Z,99858.25
2022-10-19T18:14:58.288Z,99854.03
2022-10-19T18:17:27.677Z,99844.44
2022-10-19T18:19:54.316Z,99840.19
2022-10-19T18:22:20.649Z,99845.91
2022-10-19T18:24:48.530Z,99842.50
2022-10-19T18:27:14.941Z,99839.97
2022-10-19T18:29:41.382Z,99836.38
2022-10-19T18:32:07.723Z,99832.91
2022-10-19T18:34:34.143Z,99838.00
2022-10-19T18:37:00.577Z,99834.16
2022-10-19T18:39:26.959Z,99835.72
2022-10-19T18:41:55.054Z,99829.03
2022-10-19T18:44:26.273Z,99836.09
2022-10-19T18:46:54.603Z,99839.47
2022-10-19T18:49:21.093Z,99833.94
2022-10-19T18:51:52.353Z,99832.94
2022-10-19T18:54:21.627Z,99822.03
2022-10-19T18:56:48.214Z,99817.22
2022-10-19T18:59:15.937Z,99823.28
2022-10-19T19:01:42.493Z,99820.66
2022-10-19T19:04:09.461Z,99829.78
2022-10-19T19:06:36.970Z,99819.81
2022-10-19T19:09:04.826Z,99818.28
2022-10-19T19:11:35.850Z,99823.78
2022-10-19T19:14:04.427Z,99820.41
2022-10-19T19:16:34.064Z,99812.50
2022-10-19T19:19:00.553Z,99812.13
2022-10-19T19:21:28.515Z,99809.72
2022-10-19T19:23:55.676Z,99810.44
2022-10-19T19:26:23.190Z,99818.56
2022-10-19T19:28:51.702Z,99820.66
2022-10-19T19:31:18.569Z,99823.88
2022-10-19T19:33:47.564Z,99820.91
2022-10-19T19:36:14.759Z,99835.84
2022-10-19T19:38:41.395Z,99840.06
2022-10-19T19:41:08.837Z,99844.31
2022-10-19T19:43:35.899Z,99852.06
2022-10-19T19:46:06.422Z,99860.13
2022-10-19T19:48:35.354Z,99861.50
2022-10-19T19:51:03.064Z,99860.34
2022-10-19T19:53:29.515Z,99863.19
2022-10-19T19:55:55.883Z,99859.78
2022-10-19T19:58:22.458Z,99863.41
2022-10-19T20:00:49.273Z,99865.31
2022-10-19T20:03:15.927Z,99874.50
2022-10-19T20:05:42.707Z,99878.34
2022-10-19T20:08:10.451Z,99882.31
2022-10-19T20:10:37.903Z,99878.81
2022-10-19T20:15:30.706Z,99877.56
2022-10-19T20:17:57.112Z,99874.25
2022-10-19T20:20:23.446Z,99877.19
2022-10-19T20:22:49.813Z,99880.28
2022-10-19T20:25:17.834Z,99892.56
2022-10-19T20:27:44.229Z,99895.97
2022-10-19T20:30:10.973Z,99884.91
2022-10-19T20:32:37.923Z,99898.03
2022-10-19T20:35:04.804Z,99897.88
2022-10-19T20:37:31.344Z,99903.13
2022-10-19T20:39:57.735Z,99894.72
2022-10-19T20:42:25.480Z,99891.06
2022-10-19T20:44:51.788Z,99879.00
2022-10-19T20:47:18.200Z,99880.88
2022-10-19T20:49:44.567Z,99877.94
2022-10-19T20:52:10.934Z,99883.38
2022-10-19T20:54:37.291Z,99884.13
2022-10-19T20:57:03.692Z,99892.47
2022-10-19T20:59:31.335Z,99903.50
2022-10-19T21:01:57.826Z,99911.75
2022-10-19T21:04:24.465Z,99909.34
2022-10-19T21:06:51.549Z,99900.75
2022-10-19T21:09:19.002Z,99895.66
2022-10-19T21:11:46.051Z,99891.44
2022-10-19T21:14:13.962Z,99896.22
2022-10-19T21:16:41.643Z,99894.44
2022-10-19T21:19:10.116Z,99890.50
2022-10-19T21:21:37.315Z,99891.03
2022-10-19T21:24:04.626Z,99889.03
2022-10-19T21:26:32.060Z,99892.25
2022-10-19T21:28:58.616Z,99877.84
2022-10-19T21:31:25.828Z,99868.63
2022-10-19T21:33:53.889Z,99868.63
2022-10-19T21:36:21.391Z,99876.38
2022-10-19T21:38:48.025Z,99874.41
2022-10-19T21:41:20.907Z,99864.34
2022-10-19T21:43:52.483Z,99860.66
2022-10-19T21:46:20.336Z,99877.63
2022-10-19T21:48:47.059Z,99881.38
2022-10-19T21:51:20.319Z,99883.13
2022-10-19T21:53:46.679Z,99872.84
2022-10-19T21:56:13.080Z,99871.28
2022-10-19T21:58:43.644Z,99861.69
2022-10-19T22:01:09.994Z,99856.78
2022-10-19T22:03:36.325Z,99855.22
2022-10-19T22:06:02.703Z,99858.06
2022-10-19T22:08:30.551Z,99851.00
2022-10-19T22:10:57.018Z,99854.09
2022-10-19T22:13:23.367Z,99852.34
2022-10-19T22:15:49.699Z,99858.25
2022-10-19T22:18:16.043Z,99857.97
2022-10-19T22:20:42.375Z,99862.16
2022-10-19T22:23:08.705Z,99862.03
2022-10-19T22:25:36.356Z,99866.41
2022-10-19T22:28:02.717Z,99863.41
2022-10-19T22:30:29.359Z,99863.13
2022-10-19T22:32:55.714Z,99862.13
2022-10-19T22:35:22.081Z,99857.28
2022-10-19T22:37:48.419Z,99850.06
2022-10-19T22:40:15.037Z,99843.69
2022-10-19T22:42:42.675Z,99836.91
2022-10-19T22:45:09.160Z,99834.47
2022-10-19T22:47:35.533Z,99836.91
2022-10-19T22:50:01.858Z,99839.06
2022-10-19T22:52:28.199Z,99843.03
2022-10-19T22:54:54.571Z,99822.84
2022-10-19T22:57:20.908Z,99815.81
2022-10-19T22:59:48.581Z,99822.31
2022-10-19T23:02:14.893Z,99817.78
2022-10-19T23:04:41.268Z,99830.31
2022-10-19T23:07:07.716Z,99837.06
2022-10-19T23:09:34.052Z,99846.50
2022-10-19T23:12:00.575Z,99856.13
2022-10-19T23:14:26.948Z,99853.44
2022-10-19T23:16:54.618Z,99858.34
2022-10-19T23:19:21.089Z,99857.50
2022-10-19T23:21:47.439Z,99850.28
2022-10-19T23:24:13.775Z,99856.19
2022-10-19T23:26:40.083Z,99853.34
2022-10-19T23:29:06.429Z,99860.44
2022-10-19T23:31:32.843Z,99849.38
2022-10-19T23:34:00.477Z,99842.28
2022-10-19T23:36:27.427Z,99843.22
2022-10-19T23:38:54.698Z,99834.38
2022-10-19T23:41:21.564Z,99842.88
2022-10-19T23:43:48.485Z,99837.97
2022-10-19T23:46:14.886Z,99839.28
2022-10-19T23:48:41.471Z,99843.09
2022-10-19T23:51:10.590Z,99837.19
2022-10-19T23:53:40.781Z,99839.03
2022-10-19T23:56:08.809Z,99828.81
2022-10-19T23:58:35.128Z,99825.38
